Latest Coastal Weather Observations for Low Head

IDV60701

Issued at 1:21 am EDT Monday 26 January 2015 (issued every 10 minutes, with the page automatically refreshed every 10 minutes)

About coastal observations | Map of coastal stations | Coastal observations for VIC | Marine services | Other Formats
Station Details ID: 091293 Name: LOW HEAD Lat: -41.05 Lon: 146.79 Height: 3.0 m
Data from the previous 72 hours. | See also: Recent months at Low Head
Date/Time
EDT
Temp

°C
Wind Pressure Rain
since 9am
mm
Weather Cloud Vis
km
Sea
Height
m
Swell
Dir
 
Speed
knots
Gust
knots
hPa Trend Height
m
Period
s
Dir
26/01:00am 12.9 W 20 26 1008.8 - 0.0 - - - - - - -
26/12:30am 13.2 W 22 27 1008.7 - 0.0 - - - - - - -
26/12:00am 13.3 W 21 25 1008.6 - 0.0 - - - - - - -
 
Date/Time
EDT
Temp

°C
Wind Pressure Rain
since 9am
mm
Weather Cloud Vis
km
Sea
Height
m
Swell
Dir
 
Speed
knots
Gust
knots
hPa Trend Height
m
Period
s
Dir
25/11:30pm 13.1 W 21 26 1008.5 - 0.0 - - - - - - -
25/11:00pm 13.0 W 21 26 1008.4 - 0.0 - - - - - - -
25/10:30pm 13.0 W 22 26 1008.0 - 0.0 - - - - - - -
25/10:00pm 13.5 W 21 26 1007.8 - 0.0 - - - - - - -
25/09:30pm 13.9 WSW 25 32 1007.1 - 0.0 - - - - - - -
25/09:00pm 14.1 WSW 24 29 1006.4 - 0.0 - - - - - - -
25/08:30pm 14.0 WSW 23 28 1006.1 - 0.0 - - - - - - -
25/08:00pm 14.8 WSW 24 29 1005.5 - 0.0 - - - - - - -
25/07:30pm 15.6 W 27 33 1004.9 - 0.0 - - - - - - -
25/07:00pm 15.2 W 25 31 1004.6 - 0.0 - - - - - - -
25/06:30pm 15.6 W 26 31 1004.2 - 0.0 - - - - - - -
25/06:00pm 15.7 W 27 31 1003.9 - 0.0 - - - - - - -
25/05:30pm 15.5 W 30 35 1003.5 - 0.0 - - - - - - -
25/05:00pm 15.1 WSW 29 36 1003.4 - 0.0 - - - - - - -
25/04:49pm 15.6 W 26 36 1003.4 - 0.0 - - - - - - -
25/04:30pm 15.9 W 26 31 1003.2 - 0.0 - - - - - - -
25/04:00pm 15.1 W 24 29 1003.0 - 0.0 - - - - - - -
25/03:30pm 14.9 W 30 37 1003.0 - 0.0 - - - - - - -
25/03:28pm 14.7 W 31 39 1003.0 - 0.0 - - - - - - -
25/03:12pm 16.8 WNW 27 40 1002.8 - 0.0 - - - - - - -
25/03:00pm 16.9 WNW 27 31 1002.8 - 0.0 - - - - - - -
25/02:30pm 16.8 WNW 26 33 1002.6 - 0.0 - - - - - - -
25/02:00pm 16.9 WNW 27 32 1002.4 - 0.0 - - - - - - -
25/01:30pm 17.1 WNW 23 29 1002.2 - 0.0 - - - - - - -
25/01:00pm 16.6 W 25 31 1002.0 - 0.0 - - - - - - -
25/12:30pm 17.2 WNW 24 29 1001.9 - 0.0 - - - - - - -
25/12:00pm 16.9 WNW 22 29 1001.7 - 0.0 - - - - - - -
25/11:30am 16.4 W 25 29 1001.5 - 0.0 - - - - - - -
25/11:00am 16.4 W 23 28 1001.3 - 0.0 - - - - - - -
25/10:30am 16.2 W 22 27 1001.3 - 0.0 - - - - - - -
25/10:00am 15.8 W 25 29 1001.2 - 0.0 - - - - - - -
25/09:30am 15.6 W 24 29 1001.0 - 0.0 - - - - - - -
25/09:00am 15.1 W 24 30 1000.6 - 2.6 - - - - - - -
25/08:30am 15.1 W 23 28 1000.0 - 2.6 - - - - - - -
25/08:00am 14.6 W 17 22 999.4 - 2.6 - - - - - - -
25/07:30am 14.3 W 21 24 999.8 - 2.2 - - - - - - -
25/07:00am 14.8 W 27 34 999.2 - 1.4 - - - - - - -
25/06:30am 15.5 W 27 33 998.1 - 1.4 - - - - - - -
25/06:14am 16.2 W 23 31 997.9 - 1.2 - - - - - - -
25/06:00am 16.2 W 18 21 997.4 - 1.2 Recent precip. - - - - - -
25/05:30am 17.6 NNW 18 23 997.4 - 0.0 - - - - - - -
25/05:00am 17.7 NNW 18 20 997.7 - 0.0 - - - - - - -
25/04:30am 17.5 NNW 16 19 997.9 - 0.0 - - - - - - -
25/04:00am 17.6 NNW 17 19 998.2 - 0.0 - - - - - - -
25/03:30am 17.6 NNW 17 19 998.7 - 0.0 - - - - - - -
25/03:00am 17.6 NNW 17 19 999.2 - 0.0 - - - - - - -
25/02:30am 17.4 NNW 17 19 999.6 - 0.0 - - - - - - -
25/02:00am 17.4 NNW 17 19 1000.0 - 0.0 - - - - - - -
25/01:30am 17.4 NNW 16 19 1000.3 - 0.0 - - - - - - -
25/01:00am 17.4 NNW 17 19 1000.9 - 0.0 - - - - - - -
25/12:30am 17.5 N 16 18 1001.4 - 0.0 - - - - - - -
25/12:00am 17.5 N 15 17 1001.8 - 0.0 - - - - - - -
 
Date/Time
EDT
Temp

°C
Wind Pressure Rain
since 9am
mm
Weather Cloud Vis
km
Sea
Height
m
Swell
Dir
 
Speed
knots
Gust
knots
hPa Trend Height
m
Period
s
Dir
24/11:30pm 17.5 N 15 17 1002.0 - 0.0 - - - - - - -
24/11:00pm 17.5 N 13 15 1002.3 - 0.0 - - - - - - -
24/10:30pm 17.5 N 12 14 1002.7 - 0.0 - - - - - - -
24/10:00pm 17.5 NNE 9 11 1002.4 - 0.0 - - - - - - -
24/09:30pm 17.5 NNW 6 9 1002.5 - 0.0 - - - - - - -
24/09:00pm 17.5 NW 11 14 1002.9 - 0.0 - - - - - - -
24/08:30pm 17.5 NW 11 13 1002.8 - 0.0 - - - - - - -
24/08:00pm 17.9 NW 11 13 1002.6 - 0.0 - - - - - - -
24/07:30pm 18.0 NNW 10 12 1002.5 - 0.0 - - - - - - -
24/07:00pm 18.3 NW 10 11 1002.2 - 0.0 - - - - - - -
24/06:30pm 18.4 NNW 9 11 1002.0 - 0.0 - - - - - - -
24/06:00pm 18.7 NW 10 13 1002.1 - 0.0 - - - - - - -
24/05:30pm 19.0 NNW 9 11 1002.4 - 0.0 - - - - - - -
24/05:00pm 19.1 NW 9 11 1002.8 - 0.0 - - - - - - -
24/04:30pm 18.7 NNW 10 12 1003.1 - 0.0 - - - - - - -
24/04:00pm 18.9 N 10 12 1003.5 - 0.0 - - - - - - -
24/03:30pm 18.5 N 11 13 1003.7 - 0.0 - - - - - - -
24/03:00pm 18.7 N 10 13 1004.0 - 0.0 - - - - - - -
24/02:30pm 18.8 NNW 9 11 1004.5 - 0.0 - - - - - - -
24/02:00pm 18.7 NNW 9 11 1004.9 - 0.0 - - - - - - -
24/01:30pm 18.2 NNW 9 11 1005.1 - 0.0 - - - - - - -
24/01:00pm 18.2 NNW 7 9 1005.5 - 0.0 - - - - - - -
24/12:30pm 18.0 NNW 6 7 1005.7 - 0.0 - - - - - - -
24/12:00pm 17.2 NW 7 10 1006.0 - 0.0 - - - - - - -
24/11:30am 16.8 NNW 7 8 1006.2 - 0.0 - - - - - - -
24/11:00am 17.0 WNW 6 8 1006.2 - 0.0 - - - - - - -
24/10:30am 17.4 W 8 11 1006.3 - 0.0 - - - - - - -
24/10:00am 16.1 W 7 11 1006.4 - 0.0 - - - - - - -
24/09:30am 16.0 W 9 12 1006.4 - 0.0 - - - - - - -
24/09:00am 15.5 W 10 12 1006.6 - 0.0 - - - - - - -
24/08:30am 16.3 WNW 10 12 1006.5 - 0.0 - - - - - - -
24/08:00am 15.8 WNW 9 12 1006.2 - 0.0 - - - - - - -
24/07:30am 15.9 NW 9 11 1006.0 - 0.0 - - - - - - -
24/07:00am 15.5 NNW 9 11 1005.8 - 0.0 - - - - - - -
24/06:30am 15.1 NNW 9 11 1005.7 - 0.0 - - - - - - -
24/06:00am 15.3 N 8 10 1005.5 - 0.0 - - - - - - -
24/05:30am 14.9 NNW 8 11 1005.7 - 0.0 - - - - - - -
24/05:00am 14.8 NNE 6 9 1005.5 - 0.0 - - - - - - -
24/04:30am 12.6 E 4 5 1005.3 - 0.0 - - - - - - -
24/04:00am 13.1 E 6 7 1005.4 - 0.0 - - - - - - -
24/03:30am 13.6 E 5 6 1005.9 - 0.0 - - - - - - -
24/03:00am 13.2 E 6 7 1006.4 - 0.0 - - - - - - -
24/02:30am 13.5 E 7 9 1006.6 - 0.0 - - - - - - -
24/02:00am 15.5 W 6 8 1006.6 - 0.0 - - - - - - -
24/01:30am 15.9 WNW 7 8 1006.8 - 0.0 - - - - - - -
24/01:00am 16.2 WNW 9 10 1006.7 - 0.0 - - - - - - -
24/12:30am 16.3 W 9 11 1006.6 - 0.0 - - - - - - -
24/12:00am 16.5 W 10 13 1006.4 - 0.0 - - - - - - -
 
Date/Time
EDT
Temp

°C
Wind Pressure Rain
since 9am
mm
Weather Cloud Vis
km
Sea
Height
m
Swell
Dir
 
Speed
knots
Gust
knots
hPa Trend Height
m
Period
s
Dir
23/11:30pm 16.8 W 13 15 1006.4 - 0.0 - - - - - - -
23/11:00pm 17.0 W 11 14 1006.4 - 0.0 - - - - - - -
23/10:30pm 17.4 WSW 11 13 1006.4 - 0.0 - - - - - - -
23/10:00pm 17.7 W 10 12 1006.3 - 0.0 - - - - - - -
23/09:30pm 18.2 WSW 10 12 1005.8 - 0.0 - - - - - - -
23/09:00pm 18.8 WSW 13 16 1005.6 - 0.0 - - - - - - -
23/08:30pm 18.9 WNW 13 16 1005.3 - 0.0 - - - - - - -
23/08:00pm 19.3 WNW 16 18 1004.9 - 0.0 - - - - - - -
23/07:30pm 19.6 WNW 20 23 1004.6 - 0.0 - - - - - - -
23/07:00pm 20.0 WNW 19 24 1004.0 - 0.0 - - - - - - -
23/06:30pm 20.4 WNW 22 26 1003.5 - 0.0 - - - - - - -
23/06:00pm 20.5 WNW 22 27 1003.1 - 0.0 - - - - - - -
23/05:30pm 20.5 NW 20 23 1003.0 - 0.0 - - - - - - -
23/05:00pm 19.9 NW 23 28 1002.9 - 0.0 - - - - - - -
23/04:30pm 20.1 NW 23 26 1003.0 - 0.0 - - - - - - -
23/04:00pm 20.4 NW 21 25 1002.9 - 0.0 - - - - - - -
23/03:30pm 20.5 NW 22 25 1003.0 - 0.0 - - - - - - -
23/03:00pm 20.9 NW 17 19 1002.8 - 0.0 - - - - - - -
23/02:30pm 21.2 NW 19 22 1002.6 - 0.0 - - - - - - -
23/02:00pm 21.1 WNW 21 24 1002.7 - 0.0 - - - - - - -
23/01:30pm 21.3 WNW 20 23 1002.5 - 0.0 - - - - - - -
23/01:26pm 21.2 WNW 19 23 1002.6 - 0.0 - - - - - - -
23/01:00pm 20.8 NNW 16 19 1002.7 - 0.0 - - - - - - -
23/12:30pm 20.2 NNW 16 19 1002.7 - 0.0 - - - - - - -
23/12:00pm 20.4 NW 16 19 1002.8 - 0.0 - - - - - - -
23/11:30am 20.6 NW 14 17 1002.8 - 0.0 - - - - - - -
23/11:00am 20.2 NW 13 15 1002.6 - 0.0 - - - - - - -
23/10:30am 20.4 NW 13 14 1002.4 - 0.0 - - - - - - -
23/10:00am 20.0 WNW 12 14 1002.5 - 0.0 - - - - - - -
23/09:30am 19.7 NW 11 12 1002.5 - 0.0 - - - - - - -
23/09:00am 19.4 NW 9 10 1002.4 - 0.6 - - - - - - -
23/08:30am 18.9 N 7 8 1002.0 - 0.6 - - - - - - -
23/08:00am 18.6 N 8 9 1002.3 - 0.6 - - - - - - -
23/07:30am 18.5 NNE 7 8 1001.9 - 0.6 - - - - - - -
23/07:00am 18.5 NE 5 6 1001.8 - 0.6 - - - - - - -
23/06:30am 18.6 NE 7 9 1001.8 - 0.6 - - - - - - -
23/06:00am 18.5 NE 5 7 1002.0 - 0.4 - - - - - - -
23/05:30am 18.2 ENE 1 4 1002.3 - 0.4 - - - - - - -
23/05:00am 18.3 E 4 7 1002.4 - 0.4 - - - - - - -
23/04:30am 18.5 E 5 7 1002.3 - 0.4 - - - - - - -
23/04:00am 18.6 ENE 10 12 1002.7 - 0.4 - - - - - - -
23/03:30am 18.5 ENE 11 13 1003.2 - 0.2 - - - - - - -
23/03:24am 18.6 ENE 10 12 1002.8 - 0.2 - - - - - - -
23/03:00am 18.5 NNE 4 6 1004.8 - 0.2 Recent precip. - - - - - -
23/02:30am 18.3 ENE 8 10 1003.5 - 0.2 - - - - - - -
23/02:00am 18.2 ESE 3 5 1004.0 - 0.0 - - - - - - -
23/01:30am 18.1 ESE 3 5 1004.7 - 0.0 - - - - - - -

Other Formats:

Comma delimited format used in spreadsheet applications
http://www.bom.gov.au/fwo/IDV60701/IDV60701.95964.axf

JavaScript Object Notation format (JSON) in row-major order
http://www.bom.gov.au/fwo/IDV60701/IDV60701.95964.json